createdAt,value
2022-08-04T00:00:01.290Z,56.57
2022-08-04T00:03:06.693Z,56.37
2022-08-04T00:05:52.996Z,56.65
2022-08-04T00:08:35.592Z,56.39
2022-08-04T00:11:15.615Z,56.33
2022-08-04T00:14:02.899Z,56.45
2022-08-04T00:16:39.304Z,56.34
2022-08-04T00:19:17.845Z,56.44
2022-08-04T00:21:57.612Z,56.61
2022-08-04T00:24:33.121Z,56.45
2022-08-04T00:27:06.096Z,56.72
2022-08-04T00:29:42.215Z,56.91
2022-08-04T00:32:15.403Z,57.15
2022-08-04T00:35:09.723Z,57.06
2022-08-04T00:37:42.526Z,57.05
2022-08-04T00:40:24.344Z,57.36
2022-08-04T00:43:09.556Z,57.40
2022-08-04T00:46:17.510Z,57.53
2022-08-04T00:49:22.279Z,57.57
2022-08-04T00:52:31.604Z,57.59
2022-08-04T00:55:13.163Z,57.01
2022-08-04T00:57:57.770Z,57.16
2022-08-04T01:00:34.631Z,57.12
2022-08-04T01:03:15.781Z,57.35
2022-08-04T01:06:08.665Z,57.42
2022-08-04T01:08:51.257Z,57.30
2022-08-04T01:11:57.124Z,57.18
2022-08-04T01:14:54.363Z,57.29
2022-08-04T01:17:34.912Z,57.20
2022-08-04T01:20:09.796Z,56.86
2022-08-04T01:23:15.760Z,57.00
2022-08-04T01:26:43.994Z,56.96
2022-08-04T01:29:32.987Z,57.13
2022-08-04T01:32:27.578Z,57.20
2022-08-04T01:35:04.555Z,57.20
2022-08-04T01:37:50.417Z,57.42
2022-08-04T01:40:24.593Z,57.66
2022-08-04T01:42:57.614Z,57.85
2022-08-04T01:45:32.807Z,58.24
2022-08-04T01:48:08.265Z,58.31
2022-08-04T01:50:44.622Z,58.48
2022-08-04T01:53:17.201Z,58.68
2022-08-04T01:55:54.499Z,58.87
2022-08-04T01:58:30.424Z,58.88
2022-08-04T02:01:08.569Z,58.85
2022-08-04T02:04:19.434Z,59.16
2022-08-04T02:06:49.023Z,59.02
2022-08-04T02:09:23.852Z,59.26
2022-08-04T02:12:06.228Z,59.24
2022-08-04T02:14:57.694Z,59.43
2022-08-04T02:17:40.046Z,59.43
2022-08-04T02:20:17.211Z,59.69
2022-08-04T02:22:55.094Z,59.68
2022-08-04T02:25:28.930Z,59.67
2022-08-04T02:28:23.100Z,60.06
2022-08-04T02:31:04.484Z,60.11
2022-08-04T02:33:40.798Z,60.15
2022-08-04T02:36:19.750Z,60.16
2022-08-04T02:38:57.963Z,60.11
2022-08-04T02:41:33.209Z,60.18
2022-08-04T02:44:10.780Z,60.47
2022-08-04T02:46:46.152Z,60.25
2022-08-04T02:49:19.775Z,60.24
2022-08-04T02:51:54.021Z,60.29
2022-08-04T02:54:32.888Z,60.45
2022-08-04T02:57:13.074Z,60.41
2022-08-04T03:00:08.023Z,60.53
2022-08-04T03:02:52.200Z,60.56
2022-08-04T03:05:28.085Z,60.48
2022-08-04T03:08:52.602Z,60.74
2022-08-04T03:11:46.923Z,60.78
2022-08-04T03:14:54.749Z,60.67
2022-08-04T03:17:52.351Z,60.64
2022-08-04T03:21:02.254Z,60.86
2022-08-04T03:24:07.147Z,60.92
2022-08-04T03:27:11.305Z,61.04
2022-08-04T03:30:02.407Z,61.12
2022-08-04T03:33:06.388Z,61.01
2022-08-04T03:36:04.765Z,61.17
2022-08-04T03:39:04.508Z,61.27
2022-08-04T03:41:51.884Z,61.60
2022-08-04T03:45:26.198Z,61.69
2022-08-04T03:48:30.183Z,61.93
2022-08-04T03:51:39.473Z,61.77
2022-08-04T03:54:34.424Z,61.87
2022-08-04T03:57:35.321Z,61.92
2022-08-04T04:00:15.188Z,61.95
2022-08-04T04:03:28.467Z,62.10
2022-08-04T04:09:51.628Z,62.15
2022-08-04T04:13:06.901Z,62.02
2022-08-04T04:16:10.785Z,62.02
2022-08-04T04:19:05.123Z,62.25
2022-08-04T04:21:59.678Z,62.22
2022-08-04T04:25:05.340Z,62.16
2022-08-04T04:28:43.765Z,62.59
2022-08-04T04:31:16.706Z,62.81
2022-08-04T04:33:59.779Z,62.84
2022-08-04T04:36:45.689Z,63.00
2022-08-04T04:39:32.201Z,62.65
2022-08-04T04:42:43.941Z,62.57
2022-08-04T04:45:35.934Z,62.51
2022-08-04T04:48:16.325Z,62.56
2022-08-04T04:51:01.502Z,62.62
2022-08-04T04:53:37.208Z,62.72
2022-08-04T04:56:18.409Z,62.45
2022-08-04T04:58:53.940Z,62.98
2022-08-04T05:01:56.126Z,62.73
2022-08-04T05:04:59.845Z,63.00
2022-08-04T05:07:57.690Z,63.01
2022-08-04T05:10:51.773Z,62.49
2022-08-04T05:14:34.838Z,62.75
2022-08-04T05:16:40.616Z,62.04
2022-08-04T05:19:24.779Z,62.11
2022-08-04T05:22:05.510Z,62.58
2022-08-04T05:24:44.406Z,62.29
2022-08-04T05:27:21.687Z,62.63
2022-08-04T05:29:57.684Z,62.72
2022-08-04T05:32:37.477Z,62.58
2022-08-04T05:35:16.704Z,62.39
2022-08-04T05:38:12.027Z,62.01
2022-08-04T05:40:45.933Z,62.20
2022-08-04T05:43:19.535Z,61.89
2022-08-04T05:45:52.823Z,61.81
2022-08-04T05:48:28.567Z,61.17
2022-08-04T05:51:05.611Z,60.65
2022-08-04T05:53:38.402Z,59.18
2022-08-04T05:56:13.351Z,58.65
2022-08-04T05:58:48.054Z,57.62
2022-08-04T06:01:22.108Z,57.32
2022-08-04T06:03:56.108Z,56.54
2022-08-04T06:06:28.978Z,56.82
2022-08-04T06:09:01.558Z,55.80
2022-08-04T06:12:02.186Z,55.26
2022-08-04T06:14:33.157Z,55.59
2022-08-04T06:18:32.257Z,55.06
2022-08-04T06:20:20.080Z,54.97
2022-08-04T06:22:56.831Z,54.26
2022-08-04T06:25:32.461Z,53.71
2022-08-04T06:28:10.006Z,53.19
2022-08-04T06:30:47.709Z,53.48
2022-08-04T06:33:33.510Z,53.03
2022-08-04T06:36:25.825Z,52.88
2022-08-04T06:38:59.264Z,51.81
2022-08-04T06:41:32.003Z,51.36
2022-08-04T06:44:07.374Z,51.52
2022-08-04T06:46:42.204Z,50.92
2022-08-04T06:49:15.216Z,51.35
2022-08-04T06:51:49.646Z,51.29
2022-08-04T06:54:22.173Z,51.98
2022-08-04T06:56:55.340Z,50.36
2022-08-04T06:59:28.553Z,49.05
2022-08-04T07:02:02.819Z,49.28
2022-08-04T07:04:36.572Z,49.22
2022-08-04T07:07:08.994Z,48.30
2022-08-04T07:09:42.602Z,48.99
2022-08-04T07:12:20.343Z,48.77
2022-08-04T07:14:53.611Z,48.45
2022-08-04T07:17:28.861Z,49.41
2022-08-04T07:20:10.557Z,49.49
2022-08-04T07:22:44.454Z,48.98
2022-08-04T07:25:18.675Z,47.96
2022-08-04T07:27:54.316Z,47.55
2022-08-04T07:30:30.908Z,47.51
2022-08-04T07:33:03.800Z,46.43
2022-08-04T07:36:05.269Z,46.23
2022-08-04T07:38:28.948Z,46.55
2022-08-04T07:41:03.916Z,45.44
2022-08-04T07:43:37.196Z,45.16
2022-08-04T07:46:11.369Z,45.09
2022-08-04T07:48:43.541Z,44.97
2022-08-04T07:51:17.109Z,45.57
2022-08-04T07:53:54.544Z,45.89
2022-08-04T07:56:28.921Z,44.49
2022-08-04T07:59:02.543Z,44.42
2022-08-04T08:01:36.712Z,43.81
2022-08-04T08:04:11.790Z,43.70
2022-08-04T08:06:44.573Z,43.84
2022-08-04T08:09:19.418Z,43.55
2022-08-04T08:12:38.042Z,43.23
2022-08-04T08:14:47.134Z,42.48
2022-08-04T08:17:19.371Z,42.46
2022-08-04T08:19:52.303Z,41.89
2022-08-04T08:22:24.748Z,41.95
2022-08-04T08:24:57.201Z,41.70
2022-08-04T08:27:29.720Z,41.57
2022-08-04T08:30:02.174Z,41.24
2022-08-04T08:32:35.069Z,41.39
2022-08-04T08:35:09.666Z,40.67
2022-08-04T08:37:47.251Z,41.11
2022-08-04T08:40:39.994Z,41.16
2022-08-04T08:44:04.748Z,41.34
2022-08-04T08:46:49.768Z,40.45
2022-08-04T08:50:01.873Z,39.60
2022-08-04T08:53:01.876Z,40.90
2022-08-04T08:56:00.331Z,39.94
2022-08-04T08:59:15.226Z,40.02
2022-08-04T09:02:04.463Z,40.04
2022-08-04T09:05:09.165Z,39.43
2022-08-04T09:08:10.313Z,39.43
2022-08-04T09:10:46.301Z,39.55
2022-08-04T09:13:26.748Z,39.26
2022-08-04T09:16:09.208Z,39.53
2022-08-04T09:18:49.143Z,39.42
2022-08-04T09:21:29.477Z,38.97
2022-08-04T09:24:34.841Z,39.23
2022-08-04T09:27:05.214Z,38.53
2022-08-04T09:29:42.832Z,38.60
2022-08-04T09:32:29.479Z,38.70
2022-08-04T09:35:15.588Z,38.20
2022-08-04T09:37:59.005Z,38.43
2022-08-04T09:40:53.053Z,38.01
2022-08-04T09:44:41.795Z,38.38
2022-08-04T09:46:36.306Z,38.39
2022-08-04T09:49:15.985Z,38.20
2022-08-04T09:52:00.275Z,37.63
2022-08-04T09:54:42.135Z,37.39
2022-08-04T09:57:19.049Z,37.04
2022-08-04T09:59:59.958Z,36.88
2022-08-04T10:02:38.753Z,37.12
2022-08-04T10:05:16.137Z,37.27
2022-08-04T10:08:16.635Z,37.11
2022-08-04T10:11:05.218Z,36.55
2022-08-04T10:14:00.587Z,37.66
2022-08-04T10:16:44.863Z,37.05
2022-08-04T10:19:26.919Z,36.63
2022-08-04T10:22:28.199Z,36.32
2022-08-04T10:26:03.653Z,36.54
2022-08-04T10:28:10.431Z,36.16
2022-08-04T10:30:47.531Z,36.53
2022-08-04T10:33:29.015Z,36.30
2022-08-04T10:36:06.178Z,35.54
2022-08-04T10:38:43.969Z,36.00
2022-08-04T10:41:27.141Z,36.30
2022-08-04T10:44:07.667Z,35.95
2022-08-04T10:46:46.465Z,35.84
2022-08-04T10:49:25.845Z,36.39
2022-08-04T10:52:09.996Z,36.02
2022-08-04T10:54:49.765Z,36.20
2022-08-04T10:57:31.086Z,34.88
2022-08-04T11:00:07.024Z,35.22
2022-08-04T11:02:46.301Z,35.10
2022-08-04T11:05:28.480Z,35.27
2022-08-04T11:08:10.051Z,35.59
2022-08-04T11:10:47.881Z,35.35
2022-08-04T11:13:29.978Z,35.54
2022-08-04T11:16:06.615Z,35.74
2022-08-04T11:18:49.365Z,35.26
2022-08-04T11:21:26.591Z,34.81
2022-08-04T11:24:15.955Z,35.51
2022-08-04T11:26:52.961Z,35.15
2022-08-04T11:29:30.056Z,36.24
2022-08-04T11:32:04.860Z,35.73
2022-08-04T11:34:41.568Z,35.65
2022-08-04T11:37:18.934Z,35.21
2022-08-04T11:40:02.433Z,35.23
2022-08-04T11:42:40.009Z,35.38
2022-08-04T11:45:18.840Z,35.07
2022-08-04T11:47:56.652Z,34.85
2022-08-04T11:50:38.624Z,34.64
2022-08-04T11:53:17.418Z,34.64
2022-08-04T11:56:09.510Z,34.45
2022-08-04T11:58:43.665Z,34.66
2022-08-04T12:01:35.771Z,35.20
2022-08-04T12:04:15.161Z,35.28
2022-08-04T12:07:00.518Z,34.32
2022-08-04T12:09:49.858Z,34.53
2022-08-04T12:12:33.180Z,35.33
2022-08-04T12:15:17.808Z,34.59
2022-08-04T12:18:02.542Z,35.35
2022-08-04T12:20:42.723Z,34.08
2022-08-04T12:23:24.075Z,34.34
2022-08-04T12:26:01.627Z,33.83
2022-08-04T12:29:07.216Z,33.47
2022-08-04T12:31:30.602Z,34.14
2022-08-04T12:34:09.596Z,34.17
2022-08-04T12:36:49.608Z,34.13
2022-08-04T12:39:23.720Z,33.84
2022-08-04T12:42:12.623Z,33.63
2022-08-04T12:44:48.195Z,33.61
2022-08-04T12:47:26.894Z,33.85
2022-08-04T12:50:05.154Z,33.53
2022-08-04T12:53:04.550Z,33.53
2022-08-04T12:55:38.703Z,32.86
2022-08-04T12:58:43.293Z,33.57
2022-08-04T13:02:09.426Z,33.20
2022-08-04T13:04:14.326Z,32.96
2022-08-04T13:06:53.913Z,33.19
2022-08-04T13:09:29.893Z,33.68
2022-08-04T13:12:16.635Z,33.93
2022-08-04T13:14:54.217Z,32.89
2022-08-04T13:17:26.493Z,33.13
2022-08-04T13:20:03.432Z,33.21
2022-08-04T13:22:37.078Z,33.65
2022-08-04T13:26:44.708Z,34.27
2022-08-04T13:28:21.296Z,33.60
2022-08-04T13:30:58.661Z,33.15
2022-08-04T13:33:34.425Z,33.25
2022-08-04T13:36:09.247Z,33.54
2022-08-04T13:38:53.143Z,33.21
2022-08-04T13:41:30.520Z,32.78
2022-08-04T13:44:19.628Z,33.02
2022-08-04T13:46:56.605Z,33.62
2022-08-04T13:49:42.484Z,33.59
2022-08-04T13:52:26.043Z,33.32
2022-08-04T13:54:58.923Z,32.82
2022-08-04T13:57:37.313Z,33.29
2022-08-04T14:00:13.366Z,32.80
2022-08-04T14:02:48.174Z,33.14
2022-08-04T14:05:28.030Z,32.94
2022-08-04T14:08:07.673Z,32.82
2022-08-04T14:10:40.879Z,32.89
2022-08-04T14:13:13.942Z,32.86
2022-08-04T14:16:00.985Z,32.16
2022-08-04T14:18:36.873Z,32.35
2022-08-04T14:21:11.829Z,32.35
2022-08-04T14:23:51.775Z,32.61
2022-08-04T14:26:31.518Z,32.40
2022-08-04T14:29:26.202Z,33.39
2022-08-04T14:32:12.966Z,32.01
2022-08-04T14:34:47.759Z,31.94
2022-08-04T14:37:22.708Z,32.43
2022-08-04T14:40:19.186Z,32.82
2022-08-04T14:42:54.921Z,32.95
2022-08-04T14:45:37.134Z,33.54
2022-08-04T14:48:14.404Z,33.11
2022-08-04T14:50:48.432Z,33.17
2022-08-04T14:53:22.801Z,32.90
2022-08-04T14:55:56.494Z,34.00
2022-08-04T14:58:36.871Z,33.60
2022-08-04T15:01:15.305Z,33.92
2022-08-04T15:03:52.689Z,33.46
2022-08-04T15:06:27.612Z,33.56
2022-08-04T15:09:02.801Z,33.61
2022-08-04T15:11:40.159Z,33.52
2022-08-04T15:14:36.014Z,33.71
2022-08-04T15:17:29.362Z,33.88
2022-08-04T15:20:00.958Z,34.25
2022-08-04T15:22:33.818Z,34.20
2022-08-04T15:25:08.421Z,33.79
2022-08-04T15:27:51.172Z,33.67
2022-08-04T15:30:23.721Z,34.36
2022-08-04T15:33:00.175Z,34.43
2022-08-04T15:35:38.860Z,34.27
2022-08-04T15:38:23.836Z,34.27
2022-08-04T15:41:10.510Z,34.60
2022-08-04T15:43:59.617Z,34.98
2022-08-04T15:47:11.650Z,34.27
2022-08-04T15:49:44.502Z,34.69
2022-08-04T15:52:18.152Z,34.45
2022-08-04T15:54:52.756Z,34.65
2022-08-04T15:57:55.665Z,34.61
2022-08-04T16:00:27.792Z,35.04
2022-08-04T16:03:00.601Z,34.95
2022-08-04T16:05:42.565Z,34.82
2022-08-04T16:08:22.045Z,35.11
2022-08-04T16:10:54.464Z,35.55
2022-08-04T16:13:26.703Z,34.82
2022-08-04T16:16:03.345Z,34.96
2022-08-04T16:18:45.013Z,35.81
2022-08-04T16:21:26.646Z,36.59
2022-08-04T16:24:18.403Z,36.31
2022-08-04T16:26:54.256Z,36.14
2022-08-04T16:29:39.741Z,36.14
2022-08-04T16:32:14.963Z,36.41
2022-08-04T16:34:55.839Z,36.31
2022-08-04T16:37:35.240Z,36.52
2022-08-04T16:40:35.209Z,36.17
2022-08-04T16:43:13.572Z,35.61
2022-08-04T16:45:52.752Z,36.65
2022-08-04T16:48:27.094Z,36.37
2022-08-04T16:51:05.002Z,36.49
2022-08-04T16:53:57.726Z,36.09
2022-08-04T16:56:35.589Z,36.38
2022-08-04T16:59:12.753Z,36.73
2022-08-04T17:01:50.665Z,37.08
2022-08-04T17:04:31.196Z,36.98
2022-08-04T17:07:05.320Z,37.27
2022-08-04T17:09:37.466Z,37.10
2022-08-04T17:12:10.232Z,36.92
2022-08-04T17:14:42.380Z,37.01
2022-08-04T17:17:24.172Z,37.10
2022-08-04T17:20:17.567Z,37.79
2022-08-04T17:22:49.915Z,37.78
2022-08-04T17:25:51.963Z,37.63
2022-08-04T17:28:30.343Z,36.86
2022-08-04T17:31:11.852Z,37.20
2022-08-04T17:33:54.172Z,37.64
2022-08-04T17:36:31.993Z,38.15
2022-08-04T17:39:17.219Z,38.14
2022-08-04T17:41:57.074Z,37.92
2022-08-04T17:44:39.972Z,37.83
2022-08-04T17:47:20.008Z,37.45
2022-08-04T17:49:52.966Z,37.73
2022-08-04T17:52:39.785Z,37.96
2022-08-04T17:55:20.663Z,37.93
2022-08-04T17:58:21.003Z,37.76
2022-08-04T18:01:23.823Z,38.61
2022-08-04T18:04:00.039Z,38.67
2022-08-04T18:06:34.823Z,38.22
2022-08-04T18:12:05.965Z,38.60
2022-08-04T18:14:51.113Z,38.53
2022-08-04T18:18:21.600Z,38.94
2022-08-04T18:20:30.958Z,39.31
2022-08-04T18:23:06.087Z,39.72
2022-08-04T18:25:51.277Z,40.06
2022-08-04T18:31:16.725Z,39.81
2022-08-04T18:33:56.914Z,39.58
2022-08-04T18:36:35.871Z,39.97
2022-08-04T18:39:12.846Z,40.14
2022-08-04T18:42:02.465Z,40.61
2022-08-04T18:44:52.119Z,41.72
2022-08-04T18:47:28.779Z,41.99
2022-08-04T18:50:59.887Z,42.60
2022-08-04T18:52:55.776Z,42.84
2022-08-04T18:55:33.978Z,42.77
2022-08-04T18:58:28.100Z,42.90
2022-08-04T19:01:01.387Z,42.89
2022-08-04T19:03:33.736Z,43.79
2022-08-04T19:06:09.326Z,43.78
2022-08-04T19:08:42.236Z,44.04
2022-08-04T19:11:38.726Z,44.19
2022-08-04T19:14:31.622Z,44.23
2022-08-04T19:17:12.421Z,44.49
2022-08-04T19:19:47.726Z,44.86
2022-08-04T19:22:35.467Z,46.27
2022-08-04T19:25:09.691Z,47.38
2022-08-04T19:27:42.418Z,47.33
2022-08-04T19:30:18.488Z,48.11
2022-08-04T19:32:51.235Z,48.17
2022-08-04T19:35:23.928Z,48.35
2022-08-04T19:38:03.643Z,48.28
2022-08-04T19:40:39.243Z,48.58
2022-08-04T19:43:15.175Z,48.31
2022-08-04T19:45:47.856Z,49.01
2022-08-04T19:48:20.407Z,49.70
2022-08-04T19:50:52.737Z,49.69
2022-08-04T19:53:33.164Z,48.92
2022-08-04T19:56:10.767Z,48.86
2022-08-04T19:58:47.524Z,49.62
2022-08-04T20:01:31.439Z,48.99
2022-08-04T20:04:11.261Z,48.62
2022-08-04T20:06:44.095Z,48.70
2022-08-04T20:09:25.800Z,48.55
2022-08-04T20:12:00.381Z,49.07
2022-08-04T20:14:33.438Z,49.37
2022-08-04T20:17:10.267Z,49.64
2022-08-04T20:19:51.369Z,49.38
2022-08-04T20:22:52.418Z,49.22
2022-08-04T20:25:37.282Z,49.50
2022-08-04T20:28:25.700Z,49.04
2022-08-04T20:31:04.259Z,49.32
2022-08-04T20:33:36.562Z,49.39
2022-08-04T20:36:10.072Z,49.39
2022-08-04T20:38:42.400Z,49.55
2022-08-04T20:41:15.262Z,49.42
2022-08-04T20:43:56.189Z,49.62
2022-08-04T20:46:29.952Z,49.66
2022-08-04T20:49:03.777Z,49.22
2022-08-04T20:51:40.017Z,49.49
2022-08-04T20:54:16.249Z,49.37
2022-08-04T20:56:51.195Z,49.49
2022-08-04T20:59:24.139Z,49.22
2022-08-04T21:01:56.909Z,49.52
2022-08-04T21:04:35.844Z,49.14
2022-08-04T21:07:09.825Z,49.19
2022-08-04T21:09:50.658Z,49.04
2022-08-04T21:12:27.398Z,49.05
2022-08-04T21:15:13.502Z,49.01
2022-08-04T21:17:57.454Z,48.97
2022-08-04T21:20:39.530Z,48.51
2022-08-04T21:23:14.921Z,47.83
2022-08-04T21:25:50.951Z,47.78
2022-08-04T21:28:23.163Z,47.79
2022-08-04T21:30:56.387Z,47.51
2022-08-04T21:33:50.914Z,47.45
2022-08-04T21:36:27.459Z,47.45
2022-08-04T21:39:00.207Z,47.35
2022-08-04T21:41:40.621Z,46.94
2022-08-04T21:44:26.772Z,46.89
2022-08-04T21:47:00.053Z,46.92
2022-08-04T21:49:32.312Z,46.72
2022-08-04T21:52:07.500Z,46.85
2022-08-04T21:54:42.584Z,46.62
2022-08-04T21:57:17.186Z,46.36
2022-08-04T21:59:49.373Z,46.21
2022-08-04T22:02:21.836Z,46.13
2022-08-04T22:04:54.507Z,46.06
2022-08-04T22:07:50.333Z,46.08
2022-08-04T22:10:31.903Z,46.15
2022-08-04T22:13:07.900Z,46.19
2022-08-04T22:16:05.053Z,45.96
2022-08-04T22:18:36.875Z,46.26
2022-08-04T22:21:12.165Z,46.38
2022-08-04T22:23:47.057Z,46.23
2022-08-04T22:26:26.842Z,46.37
2022-08-04T22:29:01.447Z,46.38
2022-08-04T22:31:53.107Z,46.36
2022-08-04T22:34:30.585Z,46.36
2022-08-04T22:37:16.784Z,46.34
2022-08-04T22:39:56.753Z,46.55
2022-08-04T22:42:31.715Z,46.33
2022-08-04T22:45:07.992Z,46.41
2022-08-04T22:47:42.113Z,46.41
2022-08-04T22:50:28.688Z,46.53
2022-08-04T22:53:01.418Z,46.48
2022-08-04T22:56:07.513Z,46.56
2022-08-04T22:58:28.477Z,46.63
2022-08-04T23:01:01.683Z,46.84
2022-08-04T23:03:38.416Z,46.94
2022-08-04T23:06:13.605Z,47.21
2022-08-04T23:08:48.479Z,47.25
2022-08-04T23:11:20.972Z,47.35
2022-08-04T23:13:54.916Z,47.49
2022-08-04T23:16:28.623Z,47.39
2022-08-04T23:19:09.929Z,47.19
2022-08-04T23:22:01.621Z,47.39
2022-08-04T23:24:35.247Z,47.45
2022-08-04T23:27:08.963Z,47.36
2022-08-04T23:29:52.869Z,47.26
2022-08-04T23:32:27.404Z,47.18
2022-08-04T23:35:01.579Z,47.18
2022-08-04T23:37:35.325Z,47.28
2022-08-04T23:40:29.974Z,47.22
2022-08-04T23:43:17.010Z,47.40
2022-08-04T23:46:07.732Z,46.94
2022-08-04T23:48:46.681Z,47.10
2022-08-04T23:51:18.717Z,47.28
2022-08-04T23:54:02.134Z,47.24
2022-08-04T23:56:38.006Z,46.96
2022-08-04T23:59:18.055Z,47.01
